createdAt,value
2023-01-29T00:00:23.330Z,76.14
2023-01-29T00:04:46.375Z,75.44
2023-01-29T00:08:51.613Z,75.98
2023-01-29T00:12:56.151Z,74.52
2023-01-29T00:16:59.597Z,77.03
2023-01-29T00:21:02.991Z,76.12
2023-01-29T00:25:07.019Z,76.79
2023-01-29T00:29:11.038Z,76.55
2023-01-29T00:33:14.204Z,75.62
2023-01-29T00:37:17.339Z,76.43
2023-01-29T00:41:37.910Z,77.65
2023-01-29T00:45:43.379Z,78.63
2023-01-29T00:49:46.500Z,76.86
2023-01-29T00:53:49.747Z,77.25
2023-01-29T00:57:53.115Z,77.96
2023-01-29T01:02:16.855Z,78.11
2023-01-29T01:06:19.534Z,78.32
2023-01-29T01:10:28.771Z,77.29
2023-01-29T01:14:35.202Z,77.64
2023-01-29T01:18:39.748Z,78.14
2023-01-29T01:22:43.052Z,78.21
2023-01-29T01:26:46.485Z,77.55
2023-01-29T01:30:49.747Z,78.34
2023-01-29T01:34:55.238Z,77.54
2023-01-29T01:38:58.524Z,79.74
2023-01-29T01:43:02.535Z,79.79
2023-01-29T01:47:05.664Z,80.22
2023-01-29T01:51:09.985Z,80.46
2023-01-29T01:55:16.388Z,79.08
2023-01-29T01:59:20.682Z,80.79
2023-01-29T02:03:43.376Z,78.65
2023-01-29T02:08:06.717Z,79.14
2023-01-29T02:12:12.447Z,80.03
2023-01-29T02:16:15.613Z,79.72
2023-01-29T02:20:24.777Z,80.18
2023-01-29T02:25:10.048Z,80.48
2023-01-29T02:29:27.213Z,79.60
2023-01-29T02:33:42.491Z,79.35
2023-01-29T02:37:55.251Z,80.20
2023-01-29T02:42:03.305Z,80.97
2023-01-29T02:46:18.578Z,80.26
2023-01-29T02:50:26.869Z,80.34
2023-01-29T02:54:37.566Z,80.51
2023-01-29T02:58:44.775Z,80.99
2023-01-29T03:02:55.360Z,80.46
2023-01-29T03:07:04.528Z,80.88
2023-01-29T03:11:08.504Z,81.48
2023-01-29T03:15:17.169Z,81.54
2023-01-29T03:19:25.516Z,81.13
2023-01-29T03:23:48.934Z,81.24
2023-01-29T03:28:13.144Z,80.34
2023-01-29T03:32:18.492Z,80.88
2023-01-29T03:36:37.958Z,81.39
2023-01-29T03:40:49.719Z,80.08
2023-01-29T03:45:01.126Z,81.56
2023-01-29T03:49:10.706Z,80.40
2023-01-29T03:53:22.941Z,80.80
2023-01-29T03:57:35.799Z,81.58
2023-01-29T04:01:44.388Z,80.60
2023-01-29T04:05:53.130Z,81.21
2023-01-29T04:10:01.985Z,80.88
2023-01-29T04:14:08.806Z,81.33
2023-01-29T04:18:15.421Z,80.43
2023-01-29T04:22:23.008Z,80.03
2023-01-29T04:26:53.355Z,81.03
2023-01-29T04:31:02.100Z,79.91
2023-01-29T04:35:24.246Z,79.98
2023-01-29T04:39:31.929Z,79.81
2023-01-29T04:43:43.973Z,79.77
2023-01-29T04:47:52.092Z,79.80
2023-01-29T04:52:03.680Z,79.87
2023-01-29T04:56:12.680Z,81.18
2023-01-29T05:00:22.754Z,79.98
2023-01-29T05:04:27.828Z,80.29
2023-01-29T05:08:33.467Z,80.81
2023-01-29T05:12:38.777Z,79.69
2023-01-29T05:16:46.840Z,80.95
2023-01-29T05:20:56.010Z,80.94
2023-01-29T05:24:59.200Z,79.89
2023-01-29T05:29:02.417Z,81.10
2023-01-29T05:33:14.855Z,81.26
2023-01-29T05:37:17.960Z,79.89
2023-01-29T05:41:21.301Z,80.58
2023-01-29T05:45:24.365Z,80.05
2023-01-29T05:49:28.870Z,81.21
2023-01-29T05:53:34.960Z,79.91
2023-01-29T05:57:38.301Z,80.29
2023-01-29T06:01:41.122Z,80.14
2023-01-29T06:05:45.743Z,80.15
2023-01-29T06:09:49.072Z,79.29
2023-01-29T06:13:51.675Z,79.02
2023-01-29T06:17:55.428Z,79.29
2023-01-29T06:22:00.040Z,79.73
2023-01-29T06:26:03.728Z,79.07
2023-01-29T06:30:08.280Z,80.71
2023-01-29T06:34:11.987Z,80.01
2023-01-29T06:38:16.732Z,80.22
2023-01-29T06:42:20.772Z,79.63
2023-01-29T06:46:23.856Z,78.52
2023-01-29T06:50:27.074Z,79.21
2023-01-29T06:54:31.681Z,79.01
2023-01-29T06:58:34.959Z,78.73
2023-01-29T07:02:38.284Z,78.67
2023-01-29T07:06:41.699Z,78.59
2023-01-29T07:10:46.977Z,77.92
2023-01-29T07:14:49.480Z,77.48
2023-01-29T07:18:52.574Z,77.79
2023-01-29T07:22:55.921Z,76.05
2023-01-29T07:27:00.505Z,76.51
2023-01-29T07:31:03.689Z,76.67
2023-01-29T07:35:07.865Z,76.34
2023-01-29T07:39:10.851Z,74.89
2023-01-29T07:43:17.802Z,75.00
2023-01-29T07:47:21.209Z,76.00
2023-01-29T07:51:24.093Z,75.52
2023-01-29T07:55:27.406Z,74.86
2023-01-29T07:59:32.491Z,74.65
2023-01-29T08:03:36.089Z,75.72
2023-01-29T08:07:39.415Z,74.48
2023-01-29T08:11:42.647Z,74.05
2023-01-29T08:15:47.475Z,74.06
2023-01-29T08:19:51.646Z,74.46
2023-01-29T08:23:54.444Z,75.38
2023-01-29T08:28:01.191Z,75.42
2023-01-29T08:32:05.925Z,75.01
2023-01-29T08:36:12.268Z,73.56
2023-01-29T08:40:16.222Z,71.81
2023-01-29T08:44:19.785Z,72.43
2023-01-29T08:48:24.190Z,69.59
2023-01-29T08:52:28.377Z,69.98
2023-01-29T08:56:31.648Z,70.96
2023-01-29T09:00:35.794Z,71.12
2023-01-29T09:04:40.387Z,71.42
2023-01-29T09:08:43.607Z,69.20
2023-01-29T09:12:46.574Z,69.00
2023-01-29T09:16:50.046Z,68.87
2023-01-29T09:20:55.172Z,67.71
2023-01-29T09:24:58.392Z,66.78
2023-01-29T09:29:01.698Z,67.06
2023-01-29T09:33:04.980Z,67.07
2023-01-29T09:37:10.008Z,67.61
2023-01-29T09:41:31.123Z,67.28
2023-01-29T09:45:34.798Z,67.66
2023-01-29T09:49:42.629Z,68.38
2023-01-29T09:53:55.452Z,67.97
2023-01-29T09:58:02.778Z,66.22
2023-01-29T10:02:17.396Z,66.99
2023-01-29T10:06:34.933Z,68.50
2023-01-29T10:10:51.082Z,67.74
2023-01-29T10:15:07.215Z,67.05
2023-01-29T10:19:29.411Z,69.43
2023-01-29T10:23:35.648Z,69.16
2023-01-29T10:27:47.799Z,70.84
2023-01-29T10:31:56.665Z,71.78
2023-01-29T10:36:06.166Z,71.21
2023-01-29T10:40:22.944Z,71.96
2023-01-29T10:44:39.705Z,71.92
2023-01-29T10:48:51.302Z,73.43
2023-01-29T10:53:15.817Z,73.28
2023-01-29T10:57:41.989Z,73.83
2023-01-29T11:01:46.736Z,73.81
2023-01-29T11:05:58.465Z,76.07
2023-01-29T11:10:09.479Z,77.73
2023-01-29T11:14:16.330Z,78.71
2023-01-29T11:18:20.474Z,77.11
2023-01-29T11:22:24.951Z,77.50
2023-01-29T11:26:28.655Z,78.77
2023-01-29T11:30:33.930Z,80.58
2023-01-29T11:34:58.302Z,81.89
2023-01-29T11:39:16.806Z,84.04
2023-01-29T11:43:23.749Z,83.83
2023-01-29T11:47:30.104Z,85.82
2023-01-29T11:51:41.085Z,85.32
2023-01-29T11:55:51.061Z,84.70
2023-01-29T11:59:56.348Z,85.57
2023-01-29T12:03:59.649Z,84.54
2023-01-29T12:08:05.652Z,85.36
2023-01-29T12:12:29.051Z,87.33
2023-01-29T12:16:38.150Z,88.37
2023-01-29T12:20:46.707Z,89.19
2023-01-29T12:24:58.770Z,89.23
2023-01-29T12:29:20.067Z,89.40
2023-01-29T12:33:30.825Z,90.27
2023-01-29T12:37:43.087Z,90.83
2023-01-29T12:41:52.884Z,90.68
2023-01-29T12:45:59.372Z,91.56
2023-01-29T12:50:07.287Z,91.43
2023-01-29T12:54:16.075Z,92.62
2023-01-29T12:58:25.705Z,92.76
2023-01-29T13:02:36.632Z,92.18
2023-01-29T13:06:46.153Z,92.28
2023-01-29T13:10:52.395Z,94.13
2023-01-29T13:15:02.810Z,95.95
2023-01-29T13:19:16.432Z,97.62
2023-01-29T13:23:23.264Z,96.51
2023-01-29T13:27:31.206Z,95.61
2023-01-29T13:31:38.260Z,97.93
2023-01-29T13:35:43.629Z,98.99
2023-01-29T13:39:50.361Z,100.00
2023-01-29T13:43:53.416Z,100.00
2023-01-29T13:48:11.435Z,100.00
2023-01-29T13:52:33.488Z,100.00
2023-01-29T13:56:59.441Z,100.00
2023-01-29T14:01:02.800Z,100.00
2023-01-29T14:05:26.993Z,100.00
2023-01-29T14:10:14.674Z,100.00
2023-01-29T14:14:51.177Z,100.00
2023-01-29T14:18:59.434Z,100.00
2023-01-29T14:23:06.802Z,100.00
2023-01-29T14:27:25.585Z,100.00
2023-01-29T14:31:32.604Z,100.00
2023-01-29T14:35:36.333Z,100.00
2023-01-29T14:39:44.265Z,100.00
2023-01-29T14:43:49.319Z,100.00
2023-01-29T14:48:01.503Z,100.00
2023-01-29T14:52:06.015Z,100.00
2023-01-29T14:56:15.928Z,100.00
2023-01-29T15:00:28.111Z,100.00
2023-01-29T15:04:38.526Z,100.00
2023-01-29T15:08:47.218Z,100.00
2023-01-29T15:13:00.301Z,100.00
2023-01-29T15:17:17.690Z,100.00
2023-01-29T15:21:22.952Z,100.00
2023-01-29T15:25:34.027Z,100.00
2023-01-29T15:29:37.747Z,100.00
2023-01-29T15:33:46.753Z,100.00
2023-01-29T15:38:00.828Z,100.00
2023-01-29T15:42:14.566Z,100.00
2023-01-29T15:46:26.516Z,100.00
2023-01-29T15:50:34.380Z,100.00
2023-01-29T15:54:37.836Z,100.00
2023-01-29T15:58:41.834Z,100.00
2023-01-29T16:02:45.193Z,100.00
2023-01-29T16:06:51.491Z,100.00
2023-01-29T16:11:00.301Z,100.00
2023-01-29T16:15:05.771Z,100.00
2023-01-29T16:19:21.647Z,100.00
2023-01-29T16:23:28.512Z,100.00
2023-01-29T16:27:33.814Z,100.00
2023-01-29T16:31:38.465Z,100.00
2023-01-29T16:35:42.463Z,100.00
2023-01-29T16:39:50.454Z,100.00
2023-01-29T16:43:55.180Z,100.00
2023-01-29T16:48:03.322Z,100.00
2023-01-29T16:52:19.194Z,100.00
2023-01-29T16:56:27.520Z,100.00
2023-01-29T17:00:34.818Z,100.00
2023-01-29T17:04:38.107Z,100.00
2023-01-29T17:08:44.314Z,100.00
2023-01-29T17:12:55.135Z,100.00
2023-01-29T17:17:03.699Z,100.00
2023-01-29T17:21:08.007Z,100.00
2023-01-29T17:25:15.973Z,100.00
2023-01-29T17:29:22.317Z,100.00
2023-01-29T17:33:26.874Z,100.00
2023-01-29T17:37:34.077Z,100.00
2023-01-29T17:41:37.299Z,100.00
2023-01-29T17:45:44.324Z,100.00
2023-01-29T17:49:48.156Z,100.00
2023-01-29T17:53:51.408Z,100.00
2023-01-29T17:57:54.570Z,100.00
2023-01-29T18:01:59.303Z,100.00
2023-01-29T18:06:06.992Z,100.00
2023-01-29T18:10:17.341Z,100.00
2023-01-29T18:14:20.729Z,100.00
2023-01-29T18:18:30.480Z,100.00
2023-01-29T18:22:33.759Z,100.00
2023-01-29T18:26:39.314Z,100.00
2023-01-29T18:30:44.662Z,100.00
2023-01-29T18:34:49.680Z,100.00
2023-01-29T18:38:54.301Z,100.00
2023-01-29T18:43:00.099Z,100.00
2023-01-29T18:47:05.019Z,100.00
2023-01-29T18:51:09.797Z,100.00
2023-01-29T18:55:15.848Z,100.00
2023-01-29T18:59:21.748Z,100.00
2023-01-29T19:03:25.043Z,100.00
2023-01-29T19:07:29.361Z,100.00
2023-01-29T19:11:32.449Z,100.00
2023-01-29T19:15:38.085Z,100.00
2023-01-29T19:19:42.360Z,100.00
2023-01-29T19:23:46.891Z,100.00
2023-01-29T19:27:50.205Z,100.00
2023-01-29T19:31:53.569Z,100.00
2023-01-29T19:35:58.877Z,100.00
2023-01-29T19:40:03.698Z,100.00
2023-01-29T19:44:09.637Z,100.00
2023-01-29T19:48:14.740Z,100.00
2023-01-29T19:52:41.447Z,100.00
2023-01-29T19:56:54.317Z,100.00
2023-01-29T20:00:58.782Z,100.00
2023-01-29T20:05:03.798Z,100.00
2023-01-29T20:09:07.221Z,100.00
2023-01-29T20:13:12.756Z,100.00
2023-01-29T20:17:17.282Z,100.00
2023-01-29T20:21:22.686Z,100.00
2023-01-29T20:25:29.200Z,100.00
2023-01-29T20:29:33.745Z,100.00
2023-01-29T20:33:39.483Z,100.00
2023-01-29T20:37:43.332Z,100.00
2023-01-29T20:41:49.499Z,100.00
2023-01-29T20:45:54.703Z,100.00
2023-01-29T20:49:58.380Z,100.00
2023-01-29T20:54:01.731Z,100.00
2023-01-29T20:58:07.956Z,100.00
2023-01-29T21:02:14.913Z,100.00
2023-01-29T21:06:18.087Z,100.00
2023-01-29T21:10:23.589Z,100.00
2023-01-29T21:14:27.456Z,100.00
2023-01-29T21:18:35.042Z,100.00
2023-01-29T21:22:39.129Z,100.00
2023-01-29T21:26:42.677Z,100.00
2023-01-29T21:30:47.881Z,100.00
2023-01-29T21:34:55.539Z,100.00
2023-01-29T21:39:16.903Z,100.00
2023-01-29T21:43:20.393Z,100.00
2023-01-29T21:47:23.767Z,100.00
2023-01-29T21:51:31.158Z,100.00
2023-01-29T21:55:37.286Z,100.00
2023-01-29T21:59:40.558Z,100.00
2023-01-29T22:03:46.120Z,100.00
2023-01-29T22:07:51.938Z,100.00
2023-01-29T22:11:55.485Z,100.00
2023-01-29T22:15:59.162Z,100.00
2023-01-29T22:20:04.461Z,100.00
2023-01-29T22:24:09.123Z,100.00
2023-01-29T22:28:12.266Z,100.00
2023-01-29T22:32:16.126Z,100.00
2023-01-29T22:36:19.693Z,100.00
2023-01-29T22:40:24.403Z,100.00
2023-01-29T22:44:27.639Z,100.00
2023-01-29T22:48:30.828Z,100.00
2023-01-29T22:52:38.737Z,100.00
2023-01-29T22:56:43.518Z,100.00
2023-01-29T23:00:50.748Z,100.00
2023-01-29T23:04:53.852Z,100.00
2023-01-29T23:08:56.852Z,100.00
2023-01-29T23:13:01.438Z,100.00
2023-01-29T23:17:05.217Z,100.00
2023-01-29T23:21:08.933Z,100.00
2023-01-29T23:25:12.177Z,100.00
2023-01-29T23:29:18.308Z,100.00
2023-01-29T23:33:24.429Z,100.00
2023-01-29T23:37:27.256Z,100.00
2023-01-29T23:41:31.593Z,100.00
2023-01-29T23:45:38.421Z,100.00
2023-01-29T23:49:44.120Z,100.00
2023-01-29T23:53:47.331Z,100.00
2023-01-29T23:57:50.869Z,100.00
